Time;durP1;ratioP1;P1;durP2;ratioP2;P2;SDS_P1;SDS_P2;PMS_P1;PMS_P2;Temp;Humidity;BMP_temperature;BMP_pressure;BME280_temperature;BME280_humidity;BME280_pressure;Samples;Min_cycle;Max_cycle;Signal;HPM_P1;HPM_P2
2022/06/19 04:02:31;;;;;;;18.00;2.58;;;14.20;99.90;;;;;;6244520;22;20445;-83
2022/06/19 04:05:07;;;;;;;15.55;2.25;;;14.20;99.90;;;;;;6196709;23;20016;-84
2022/06/19 04:07:33;;;;;;;17.23;2.72;;;14.10;99.90;;;;;;6220859;23;20122;-83
2022/06/19 04:10:00;;;;;;;15.32;2.20;;;14.10;99.90;;;;;;6222331;23;20016;-83
2022/06/19 04:12:25;;;;;;;15.25;2.65;;;14.10;99.90;;;;;;6219391;23;20008;-84
2022/06/19 04:17:56;;;;;;;9.75;1.98;;;14.00;99.90;;;;;;6238039;23;20023;-82
2022/06/19 04:20:22;;;;;;;17.67;2.30;;;14.00;99.90;;;;;;6221453;23;20012;-84
2022/06/19 04:22:51;;;;;;;13.10;2.35;;;14.00;99.90;;;;;;6221717;23;20035;-83
2022/06/19 04:25:28;;;;;;;16.63;2.80;;;13.90;99.90;;;;;;6222783;23;20020;-83
2022/06/19 04:27:53;;;;;;;22.98;2.65;;;13.90;99.90;;;;;;6221270;23;20334;-83
2022/06/19 04:30:19;;;;;;;13.40;2.75;;;13.90;99.90;;;;;;6249394;23;20012;-83
2022/06/19 04:32:45;;;;;;;12.75;2.33;;;13.90;99.90;;;;;;6246935;23;20016;-83
2022/06/19 04:35:10;;;;;;;16.92;2.35;;;13.90;99.90;;;;;;6248332;23;20098;-83
2022/06/19 04:37:36;;;;;;;18.55;2.50;;;13.90;99.90;;;;;;6221546;23;20515;-84
2022/06/19 04:40:03;;;;;;;14.57;2.20;;;13.90;99.90;;;;;;6247226;23;20091;-85
2022/06/19 04:42:28;;;;;;;19.52;2.75;;;13.90;99.90;;;;;;6221636;23;20016;-82
2022/06/19 04:44:54;;;;;;;17.95;3.22;;;13.80;99.90;;;;;;6246120;23;20082;-83
2022/06/19 04:47:20;;;;;;;17.42;3.05;;;13.70;99.90;;;;;;6221446;23;20051;-84
2022/06/19 04:49:48;;;;;;;18.70;2.83;;;13.70;99.90;;;;;;6246734;23;20012;-83
2022/06/19 04:52:13;;;;;;;17.60;2.60;;;13.70;99.90;;;;;;6221151;23;20012;-83
2022/06/19 04:54:42;;;;;;;14.13;2.60;;;13.70;99.90;;;;;;6248296;23;20023;-82
2022/06/19 04:57:10;;;;;;;12.85;2.10;;;13.70;99.90;;;;;;6220688;23;20442;-83
2022/06/19 04:59:36;;;;;;;17.98;2.90;;;13.70;99.90;;;;;;6247767;23;20029;-83
2022/06/19 05:02:12;;;;;;;;;;;;;;;;;;;;;
2022/06/19 05:04:39;;;;;;;18.08;2.78;;;13.60;99.90;;;;;;6273894;22;20016;-84
2022/06/19 05:07:04;;;;;;;15.98;2.40;;;13.60;99.90;;;;;;6276847;22;20016;-84
2022/06/19 05:09:30;;;;;;;17.38;2.00;;;13.60;99.90;;;;;;6249838;22;20315;-83
2022/06/19 05:11:56;;;;;;;14.73;2.35;;;13.60;99.90;;;;;;6251115;22;20061;-83
2022/06/19 05:14:21;;;;;;;13.00;2.53;;;13.50;99.90;;;;;;6226977;22;20020;-83
2022/06/19 05:16:47;;;;;;;14.45;2.97;;;13.50;99.90;;;;;;6251415;22;20069;-82
2022/06/19 05:19:13;;;;;;;13.95;2.40;;;13.50;99.90;;;;;;6251356;22;20016;-82
2022/06/19 05:21:39;;;;;;;15.50;2.78;;;13.50;99.90;;;;;;6279294;22;20014;-83
2022/06/19 05:24:05;;;;;;;13.65;1.95;;;13.40;99.90;;;;;;6251419;22;20454;-83
2022/06/19 05:26:34;;;;;;;15.35;2.30;;;13.40;99.90;;;;;;6226566;22;20016;-83
2022/06/19 05:29:00;;;;;;;14.77;2.42;;;13.40;99.90;;;;;;6278733;22;20015;-83
2022/06/19 05:31:26;;;;;;;15.52;2.67;;;13.30;99.90;;;;;;6251052;22;20442;-83
2022/06/19 05:33:53;;;;;;;12.98;2.20;;;13.30;99.90;;;;;;6250554;22;20015;-81
2022/06/19 05:36:19;;;;;;;14.77;2.25;;;13.30;99.90;;;;;;6250925;22;20015;-82
2022/06/19 05:38:45;;;;;;;12.18;2.33;;;13.20;99.90;;;;;;6225706;22;20073;-83
2022/06/19 05:41:12;;;;;;;17.30;2.50;;;13.20;99.90;;;;;;6251237;22;20020;-83
2022/06/19 05:43:37;;;;;;;16.33;3.15;;;13.30;99.90;;;;;;6251550;22;20053;-82
2022/06/19 05:46:15;;;;;;;14.95;1.88;;;13.30;99.90;;;;;;6278918;22;20011;-81
2022/06/19 05:48:41;;;;;;;13.70;2.05;;;13.40;99.90;;;;;;6278272;22;20008;-83
2022/06/19 05:51:10;;;;;;;16.20;2.65;;;13.30;99.90;;;;;;6250477;22;20091;-83
2022/06/19 05:53:45;;;;;;;13.93;2.38;;;13.30;99.90;;;;;;6251053;22;20336;-83
2022/06/19 05:56:11;;;;;;;17.58;2.00;;;13.40;99.90;;;;;;6278141;22;20023;-84
2022/06/19 05:58:37;;;;;;;11.88;2.40;;;13.30;99.90;;;;;;6278517;22;20019;-84
2022/06/19 06:01:04;;;;;;;19.27;2.63;;;13.40;99.90;;;;;;6251952;22;20019;-83
2022/06/19 06:03:31;;;;;;;15.38;2.38;;;13.30;99.90;;;;;;6250779;22;20510;-81
2022/06/19 06:06:05;;;;;;;11.73;2.20;;;13.30;99.90;;;;;;6225688;22;20026;-83
2022/06/19 06:08:33;;;;;;;17.08;2.20;;;13.40;99.90;;;;;;6250572;22;20016;-82
2022/06/19 06:10:59;;;;;;;16.40;3.10;;;13.40;99.90;;;;;;6250893;22;20012;-82
2022/06/19 06:13:25;;;;;;;11.80;2.33;;;13.30;99.90;;;;;;6251207;22;20022;-82
2022/06/19 06:15:51;;;;;;;15.98;2.70;;;13.30;99.90;;;;;;6276534;22;20342;-84
2022/06/19 06:18:17;;;;;;;14.57;2.67;;;13.30;99.90;;;;;;6278333;22;20012;-83
2022/06/19 06:20:43;;;;;;;18.08;2.95;;;13.40;99.90;;;;;;6250573;22;20015;-82
2022/06/19 06:23:09;;;;;;;15.30;2.05;;;13.40;99.90;;;;;;6250815;22;20063;-83
2022/06/19 06:25:37;;;;;;;14.85;2.13;;;13.40;99.90;;;;;;6250545;22;20023;-83
2022/06/19 06:28:02;;;;;;;17.27;2.45;;;13.40;99.90;;;;;;6277893;22;20417;-85
2022/06/19 06:30:28;;;;;;;23.80;3.35;;;13.50;99.90;;;;;;6254085;22;20138;-83
2022/06/19 06:32:54;;;;;;;16.80;2.30;;;13.50;99.90;;;;;;6251506;22;20515;-83
2022/06/19 06:35:28;;;;;;;18.13;2.45;;;13.60;99.90;;;;;;6282202;22;20012;-86
2022/06/19 06:37:59;;;;;;;14.70;2.60;;;13.60;99.90;;;;;;6224842;22;20030;-88
2022/06/19 06:40:25;;;;;;;12.70;1.98;;;13.60;99.90;;;;;;6248701;22;20050;-86
2022/06/19 06:42:51;;;;;;;17.95;3.05;;;13.70;99.90;;;;;;6250377;22;20050;-84
2022/06/19 06:45:17;;;;;;;18.33;2.33;;;13.70;99.90;;;;;;6250652;22;20023;-84
2022/06/19 06:47:43;;;;;;;20.77;2.53;;;13.70;99.90;;;;;;6225756;22;20481;-84
2022/06/19 06:50:09;;;;;;;25.38;3.00;;;13.80;99.90;;;;;;6250935;22;20061;-85
2022/06/19 06:52:35;;;;;;;15.52;2.13;;;13.80;99.90;;;;;;6250688;22;20014;-85
2022/06/19 06:55:01;;;;;;;16.10;2.60;;;13.80;99.90;;;;;;6251074;22;20008;-85
2022/06/19 06:57:27;;;;;;;13.13;3.17;;;13.80;99.90;;;;;;6225387;22;20019;-84
2022/06/19 06:59:53;;;;;;;18.80;2.60;;;13.80;99.90;;;;;;6250968;22;20011;-84
2022/06/19 07:02:19;;;;;;;19.55;2.45;;;13.80;99.90;;;;;;6278204;22;20059;-84
2022/06/19 07:04:44;;;;;;;18.90;2.22;;;13.80;99.90;;;;;;6278325;22;20019;-86
2022/06/19 07:07:10;;;;;;;19.10;2.53;;;13.80;99.90;;;;;;6251200;22;20063;-85
2022/06/19 07:09:35;;;;;;;21.48;2.60;;;13.80;99.90;;;;;;6225728;22;20373;-83
2022/06/19 07:12:02;;;;;;;17.55;2.47;;;13.80;99.90;;;;;;6266156;22;20011;-85
2022/06/19 07:14:28;;;;;;;20.33;2.60;;;13.80;99.90;;;;;;6294201;22;20083;-84
2022/06/19 07:16:54;;;;;;;23.17;2.90;;;13.80;99.90;;;;;;6294398;22;20011;-83
2022/06/19 07:19:19;;;;;;;21.38;2.65;;;13.70;99.90;;;;;;6300570;22;20380;-83
2022/06/19 07:21:45;;;;;;;27.23;4.38;;;13.70;99.90;;;;;;6276332;22;20007;-84
2022/06/19 07:24:11;;;;;;;21.48;2.60;;;13.70;99.90;;;;;;6267154;22;20024;-84
2022/06/19 07:26:37;;;;;;;16.50;2.55;;;13.70;99.90;;;;;;6281607;22;20338;-85
2022/06/19 07:29:03;;;;;;;21.27;3.60;;;13.70;99.90;;;;;;6280844;22;20012;-84
2022/06/19 07:31:28;;;;;;;14.52;3.50;;;13.70;99.90;;;;;;6282531;22;20018;-85
2022/06/19 07:33:54;;;;;;;23.38;3.22;;;13.70;99.90;;;;;;6227326;22;20011;-84
2022/06/19 07:36:22;;;;;;;20.13;3.45;;;13.70;99.90;;;;;;6253733;22;20090;-85
2022/06/19 07:38:48;;;;;;;17.60;2.55;;;13.70;99.90;;;;;;6251498;22;20018;-83
2022/06/19 07:41:13;;;;;;;15.63;2.53;;;13.70;99.90;;;;;;6250925;22;20016;-85
2022/06/19 07:43:39;;;;;;;17.05;2.55;;;13.70;99.90;;;;;;6250512;22;20016;-85
2022/06/19 07:46:05;;;;;;;10.65;2.05;;;13.60;99.90;;;;;;6278717;22;20349;-83
2022/06/19 07:51:15;;;;;;;18.35;2.83;;;13.60;99.90;;;;;;6278620;22;20019;-83
2022/06/19 07:53:41;;;;;;;21.58;2.83;;;13.60;99.90;;;;;;6251113;22;20382;-84
2022/06/19 07:56:07;;;;;;;17.80;2.40;;;13.60;99.90;;;;;;6278331;22;20011;-83
2022/06/19 07:58:36;;;;;;;19.63;2.30;;;13.70;99.90;;;;;;6278271;22;20047;-84
2022/06/19 08:01:03;;;;;;;15.10;2.38;;;13.60;99.90;;;;;;6250806;22;20030;-84
2022/06/19 08:03:29;;;;;;;14.55;2.00;;;13.60;99.90;;;;;;6250864;22;20020;-81
2022/06/19 08:05:54;;;;;;;18.50;3.03;;;13.60;99.90;;;;;;6250836;22;20086;-86
2022/06/19 08:08:24;;;;;;;20.17;2.15;;;13.70;99.90;;;;;;6250719;22;20381;-83
2022/06/19 08:10:52;;;;;;;16.98;2.42;;;13.70;99.90;;;;;;6277265;22;20003;-86
2022/06/19 08:13:21;;;;;;;13.68;2.22;;;13.70;99.90;;;;;;6252319;22;20015;-82
2022/06/19 08:15:53;;;;;;;15.23;1.73;;;13.70;99.90;;;;;;6279934;22;20016;-85
2022/06/19 08:18:19;;;;;;;15.57;2.53;;;13.70;99.90;;;;;;6252628;22;20065;-86
2022/06/19 08:20:45;;;;;;;15.20;2.47;;;13.70;99.90;;;;;;6279827;22;20380;-85
2022/06/19 08:23:11;;;;;;;14.95;2.00;;;13.70;99.90;;;;;;6252258;22;20069;-84
2022/06/19 08:25:37;;;;;;;15.07;2.85;;;13.60;99.90;;;;;;6227125;22;20090;-83
2022/06/19 08:28:03;;;;;;;11.45;2.33;;;13.60;99.90;;;;;;6253674;22;20022;-84
2022/06/19 08:30:34;;;;;;;21.48;2.65;;;13.70;99.90;;;;;;6279498;22;20043;-83
2022/06/19 08:33:00;;;;;;;13.30;2.55;;;13.70;99.90;;;;;;6252998;22;20015;-85
2022/06/19 08:35:28;;;;;;;42.80;5.55;;;13.70;99.90;;;;;;6252801;22;20022;-85
2022/06/19 08:38:00;;;;;;;68.45;7.22;;;13.70;99.90;;;;;;6252112;22;20043;-84
2022/06/19 08:40:49;;;;;;;138.63;12.95;;;13.80;99.90;;;;;;6227693;22;20061;-85
2022/06/19 08:43:29;;;;;;;44.33;7.10;;;13.80;99.90;;;;;;6259495;22;20069;-84
2022/06/19 08:46:20;;;;;;;15.57;3.03;;;13.90;99.90;;;;;;6280123;22;20008;-83
2022/06/19 08:49:06;;;;;;;68.78;6.28;;;14.00;99.90;;;;;;6252931;22;20008;-83
2022/06/19 08:51:51;;;;;;;15.65;2.72;;;14.10;99.90;;;;;;6279573;22;20462;-85
2022/06/19 08:54:31;;;;;;;11.98;1.95;;;14.30;99.90;;;;;;6252772;22;20012;-86
2022/06/19 08:57:22;;;;;;;26.27;3.33;;;14.20;99.90;;;;;;6278926;22;20367;-85
2022/06/19 09:00:08;;;;;;;14.20;2.22;;;14.30;99.90;;;;;;6279297;22;20019;-83
2022/06/19 09:03:03;;;;;;;23.60;2.35;;;14.10;99.90;;;;;;6251679;22;20054;-86
2022/06/19 09:05:55;;;;;;;13.02;2.35;;;14.10;99.90;;;;;;6279648;22;20015;-84
2022/06/19 09:08:58;;;;;;;14.18;1.70;;;14.10;99.90;;;;;;6226780;22;20378;-85
2022/06/19 09:11:47;;;;;;;9.52;1.65;;;14.00;99.90;;;;;;6279498;22;20012;-82
2022/06/19 09:14:35;;;;;;;9.00;2.28;;;14.00;99.90;;;;;;6279638;22;20022;-84
2022/06/19 09:17:13;;;;;;;9.70;1.70;;;14.00;99.90;;;;;;6252022;22;20066;-85
2022/06/19 09:19:51;;;;;;;8.75;1.77;;;14.20;99.90;;;;;;6226399;22;20019;-85
2022/06/19 09:22:38;;;;;;;9.52;1.60;;;14.30;99.90;;;;;;6252319;22;20016;-86
2022/06/19 09:25:39;;;;;;;13.30;2.30;;;14.40;99.90;;;;;;6251244;22;20342;-85
2022/06/19 09:28:26;;;;;;;7.45;1.33;;;14.50;99.90;;;;;;6278812;22;20061;-84
2022/06/19 09:31:04;;;;;;;9.50;2.00;;;14.60;99.90;;;;;;6279080;22;20012;-85
2022/06/19 09:33:57;;;;;;;15.27;3.05;;;14.70;99.90;;;;;;6279548;22;20008;-83
2022/06/19 09:37:01;;;;;;;9.23;1.65;;;14.80;99.90;;;;;;6226566;22;20090;-85
2022/06/19 09:39:49;;;;;;;9.00;1.88;;;14.90;99.90;;;;;;6279075;22;20007;-85
2022/06/19 09:42:38;;;;;;;10.50;1.90;;;15.10;99.90;;;;;;6251427;22;20023;-82
2022/06/19 09:45:14;;;;;;;5.25;1.20;;;15.20;99.90;;;;;;6252251;22;20085;-83
2022/06/19 09:47:51;;;;;;;14.98;1.77;;;15.20;99.90;;;;;;6227211;22;20008;-86
2022/06/19 09:50:30;;;;;;;8.10;1.55;;;15.20;99.90;;;;;;6251955;22;20041;-85
2022/06/19 09:53:08;;;;;;;8.20;1.73;;;15.20;99.90;;;;;;6252418;22;20023;-86
2022/06/19 09:55:41;;;;;;;11.30;1.80;;;15.20;99.90;;;;;;6251864;22;20082;-83
2022/06/19 09:58:16;;;;;;;12.88;1.80;;;15.20;99.90;;;;;;6279684;22;20011;-88
2022/06/19 10:00:44;;;;;;;;;;;15.30;99.90;;;;;;6252337;22;20061;-85
2022/06/19 10:03:39;;;;;;;9.20;1.25;;;15.30;99.90;;;;;;6252289;22;19950;-83
2022/06/19 10:06:15;;;;;;;9.73;1.75;;;15.40;99.90;;;;;;6226579;22;20018;-85
2022/06/19 10:08:55;;;;;;;9.25;1.70;;;15.50;99.90;;;;;;6251768;22;20010;-83
2022/06/19 10:11:34;;;;;;;5.95;1.02;;;15.60;99.90;;;;;;6252034;22;20007;-85
2022/06/19 10:14:10;;;;;;;10.30;1.63;;;15.60;99.90;;;;;;6252049;22;20016;-85
2022/06/19 10:17:12;;;;;;;7.38;1.30;;;15.70;99.90;;;;;;6250771;22;20345;-86
2022/06/19 10:19:50;;;;;;;5.57;1.13;;;15.80;99.90;;;;;;6280484;22;20067;-81
2022/06/19 10:22:30;;;;;;;9.48;1.20;;;15.90;99.90;;;;;;6250187;22;20023;-83
2022/06/19 10:25:17;;;;;;;9.93;1.50;;;15.90;99.90;;;;;;6277815;22;20020;-81
2022/06/19 10:28:07;;;;;;;10.73;1.70;;;15.80;99.90;;;;;;6251120;22;20047;-77
2022/06/19 10:30:46;;;;;;;7.90;1.38;;;15.80;99.90;;;;;;6250881;22;20046;-81
2022/06/19 10:33:47;;;;;;;8.15;1.45;;;15.80;99.90;;;;;;6224943;22;20016;-83
2022/06/19 10:36:25;;;;;;;4.90;0.98;;;15.80;99.90;;;;;;6250303;22;20015;-82
2022/06/19 10:39:19;;;;;;;9.45;1.45;;;15.90;99.90;;;;;;6249752;22;20095;-82
2022/06/19 10:42:01;;;;;;;6.57;1.02;;;16.00;99.90;;;;;;6250309;22;20099;-82
2022/06/19 10:44:31;;;;;;;8.50;1.20;;;16.10;99.90;;;;;;6250482;22;20449;-83
2022/06/19 10:47:08;;;;;;;4.55;1.05;;;16.10;99.90;;;;;;6250348;22;20019;-82
2022/06/19 10:50:04;;;;;;;7.88;1.65;;;16.00;99.90;;;;;;6250538;22;20011;-82
2022/06/19 10:53:03;;;;;;;6.45;1.20;;;16.00;99.90;;;;;;6277610;22;20078;-82
2022/06/19 10:55:35;;;;;;;9.05;1.05;;;16.10;99.90;;;;;;6250522;22;20091;-82
2022/06/19 10:58:13;;;;;;;8.32;1.40;;;16.10;99.90;;;;;;6226398;22;20012;-81
2022/06/19 11:00:39;;;;;;;4.88;1.10;;;16.20;99.90;;;;;;6249704;22;20026;-82
2022/06/19 11:06:15;;;;;;;3.45;1.00;;;16.30;99.90;;;;;;6278183;22;20019;-82
2022/06/19 11:08:53;;;;;;;4.68;1.10;;;16.30;99.90;;;;;;6250201;22;20433;-82
2022/06/19 11:11:22;;;;;;;5.03;0.90;;;16.40;99.90;;;;;;6278003;22;20004;-83
2022/06/19 11:13:55;;;;;;;4.50;1.13;;;16.30;99.90;;;;;;6250108;22;20019;-81
2022/06/19 11:16:21;;;;;;;7.68;1.33;;;16.20;99.90;;;;;;6277923;22;20015;-83
2022/06/19 11:18:51;;;;;;;7.18;1.30;;;16.10;99.90;;;;;;6277802;22;20441;-82
2022/06/19 11:21:22;;;;;;;4.90;1.30;;;16.10;99.90;;;;;;6249879;22;20012;-86
2022/06/19 11:23:48;;;;;;;4.60;1.17;;;16.10;99.90;;;;;;6251582;22;20042;-81
2022/06/19 11:26:17;;;;;;;5.65;1.05;;;16.10;99.90;;;;;;6250627;22;20008;-80
2022/06/19 11:28:48;;;;;;;7.00;1.25;;;16.00;99.90;;;;;;6250548;22;20023;-81
2022/06/19 11:31:24;;;;;;;7.35;0.95;;;16.00;99.90;;;;;;6250467;22;20459;-85
2022/06/19 11:34:43;;;;;;;7.07;1.25;;;16.00;99.90;;;;;;6250539;22;20019;-83
2022/06/19 11:37:17;;;;;;;4.97;0.93;;;16.00;99.90;;;;;;6277590;22;20050;-81
2022/06/19 11:39:46;;;;;;;5.82;1.10;;;16.10;99.90;;;;;;6225032;22;20031;-81
2022/06/19 11:42:27;;;;;;;4.10;1.00;;;16.10;99.90;;;;;;6250328;22;20027;-82
2022/06/19 11:45:14;;;;;;;4.55;0.95;;;16.10;99.90;;;;;;6250507;22;20047;-80
2022/06/19 11:47:43;;;;;;;5.63;1.20;;;16.00;99.90;;;;;;6251653;22;20078;-82
2022/06/19 11:50:12;;;;;;;7.43;1.40;;;16.00;99.90;;;;;;6252424;22;20088;-82
2022/06/19 11:52:41;;;;;;;4.85;0.90;;;16.10;99.90;;;;;;6226985;22;20437;-81
2022/06/19 11:55:16;;;;;;;4.95;1.15;;;16.10;99.90;;;;;;6279185;22;20031;-80
2022/06/19 11:57:42;;;;;;;5.70;0.98;;;16.20;99.90;;;;;;6252126;22;20057;-80
2022/06/19 12:00:27;;;;;;;3.15;0.93;;;16.30;99.90;;;;;;6279597;22;20314;-83
2022/06/19 12:02:55;;;;;;;4.13;0.85;;;16.40;99.90;;;;;;6252066;22;20015;-80
2022/06/19 12:05:27;;;;;;;5.82;1.35;;;16.40;99.90;;;;;;6252147;22;20012;-82
2022/06/19 12:07:55;;;;;;;2.55;0.70;;;16.40;99.90;;;;;;6251430;22;20008;-83
2022/06/19 12:10:26;;;;;;;2.88;0.95;;;16.50;99.90;;;;;;6279478;22;20015;-81
2022/06/19 12:12:57;;;;;;;3.78;0.80;;;16.60;99.90;;;;;;6252252;22;20038;-80
2022/06/19 12:15:29;;;;;;;4.07;1.13;;;16.80;99.90;;;;;;6279175;22;20066;-82
2022/06/19 12:18:03;;;;;;;4.38;1.00;;;16.90;99.90;;;;;;6251902;22;20334;-82
2022/06/19 12:20:36;;;;;;;6.43;1.02;;;16.90;99.90;;;;;;6278611;22;20014;-83
2022/06/19 12:23:17;;;;;;;5.85;1.25;;;16.90;99.90;;;;;;6251192;22;20007;-82
2022/06/19 12:25:45;;;;;;;4.40;0.90;;;17.00;99.90;;;;;;6251755;22;20008;-81
2022/06/19 12:28:33;;;;;;;3.67;0.80;;;17.10;99.90;;;;;;6251578;22;20038;-82
2022/06/19 12:31:08;;;;;;;3.28;0.85;;;17.30;99.90;;;;;;6251950;22;20038;-84
2022/06/19 12:33:48;;;;;;;4.78;1.00;;;17.50;99.90;;;;;;6251456;22;20481;-82
2022/06/19 12:36:20;;;;;;;3.45;1.00;;;17.60;99.90;;;;;;6252267;22;20437;-82
2022/06/19 12:38:49;;;;;;;4.43;1.10;;;17.60;99.90;;;;;;6278823;22;20018;-83
2022/06/19 12:41:31;;;;;;;3.50;0.98;;;17.60;99.90;;;;;;6251598;22;20054;-83
2022/06/19 12:44:05;;;;;;;7.35;0.98;;;17.60;99.90;;;;;;6279106;22;20091;-82
2022/06/19 12:46:46;;;;;;;4.28;1.10;;;17.60;99.90;;;;;;6279269;22;20020;-81
2022/06/19 12:49:14;;;;;;;3.83;0.95;;;17.50;99.90;;;;;;6251294;22;20352;-80
2022/06/19 12:51:56;;;;;;;3.63;1.10;;;17.60;99.90;;;;;;6225615;22;20090;-80
2022/06/19 12:54:56;;;;;;;3.40;0.80;;;17.60;99.90;;;;;;6251466;22;20038;-81
2022/06/19 12:57:34;;;;;;;5.93;1.00;;;17.50;99.90;;;;;;6220125;22;20133;-82
2022/06/19 13:00:07;;;;;;;5.80;1.13;;;17.50;99.90;;;;;;6251509;22;20326;-83
2022/06/19 13:03:02;;;;;;;4.95;1.05;;;17.30;99.90;;;;;;6251612;22;20011;-83
2022/06/19 13:06:05;;;;;;;5.18;1.50;;;17.40;99.90;;;;;;6251764;22;20090;-83
2022/06/19 13:08:42;;;;;;;4.13;1.00;;;17.40;99.90;;;;;;6235479;22;20039;-83
2022/06/19 13:11:10;;;;;;;3.60;0.82;;;17.40;99.90;;;;;;6251093;22;20018;-84
2022/06/19 13:13:52;;;;;;;5.68;1.17;;;17.40;99.90;;;;;;6226311;22;20015;-83
2022/06/19 13:16:21;;;;;;;7.85;1.13;;;17.30;99.90;;;;;;6251091;22;20381;-82
2022/06/19 13:19:05;;;;;;;5.70;1.23;;;17.20;99.90;;;;;;6251492;22;20038;-83
2022/06/19 13:21:49;;;;;;;7.10;1.27;;;17.20;99.90;;;;;;6279143;22;20090;-81
2022/06/19 13:24:42;;;;;;;4.45;1.00;;;17.20;99.90;;;;;;6251437;22;20330;-82
2022/06/19 13:27:16;;;;;;;4.70;0.90;;;17.10;99.90;;;;;;6253835;22;20069;-83
2022/06/19 13:30:05;;;;;;;4.50;1.00;;;17.00;99.90;;;;;;6260402;22;20011;-83
2022/06/19 13:33:00;;;;;;;6.03;1.13;;;16.90;99.90;;;;;;6270394;22;20063;-83
2022/06/19 13:36:00;;;;;;;8.07;3.22;;;16.90;99.90;;;;;;6271006;22;20003;-82
2022/06/19 13:38:41;;;;;;;7.45;1.20;;;17.00;99.90;;;;;;6291734;22;20015;-82
2022/06/19 13:41:20;;;;;;;4.32;0.85;;;17.20;99.90;;;;;;6259386;22;20365;-81
2022/06/19 13:44:16;;;;;;;6.22;1.23;;;17.40;99.90;;;;;;6282722;22;20047;-82
2022/06/19 13:47:11;;;;;;;;;;;17.50;99.90;;;;;;6281147;22;20012;-83
2022/06/19 13:49:52;;;;;;;8.68;0.90;;;17.80;99.90;;;;;;6232633;22;19911;-81
2022/06/19 13:52:47;;;;;;;7.20;1.10;;;18.10;99.90;;;;;;6279244;22;20449;-83
2022/06/19 13:55:15;;;;;;;4.97;0.93;;;18.30;99.90;;;;;;6251071;22;20378;-82
2022/06/19 13:57:49;;;;;;;5.47;0.98;;;18.50;99.90;;;;;;6251542;22;20012;-83
2022/06/19 14:00:27;;;;;;;7.22;1.23;;;18.50;99.90;;;;;;6250985;22;20449;-82
2022/06/19 14:03:22;;;;;;;7.32;1.42;;;18.70;99.90;;;;;;6278580;22;20008;-82
2022/06/19 14:05:51;;;;;;;4.23;1.30;;;18.80;99.90;;;;;;6265115;22;20060;-82
2022/06/19 14:08:42;;;;;;;6.10;1.20;;;18.90;99.90;;;;;;6251230;22;20449;-83
2022/06/19 14:12:03;;;;;;;5.80;1.05;;;19.20;99.90;;;;;;6277630;22;20035;-81
2022/06/19 14:14:18;;;;;;;4.72;1.13;;;19.50;99.90;;;;;;6278010;22;20019;-82
2022/06/19 14:16:52;;;;;;;6.50;1.38;;;19.50;99.90;;;;;;6253286;22;20129;-83
2022/06/19 14:19:17;;;;;;;12.18;2.10;;;19.50;99.90;;;;;;6230416;22;20057;-81
2022/06/19 14:22:04;;;;;;;6.35;1.40;;;19.30;99.90;;;;;;6254717;22;20450;-83
2022/06/19 14:24:52;;;;;;;5.18;1.23;;;19.30;99.90;;;;;;6251391;22;20012;-83
2022/06/19 14:27:33;;;;;;;5.78;1.30;;;19.20;99.90;;;;;;6226260;22;20011;-84
2022/06/19 14:30:04;;;;;;;7.50;1.45;;;18.90;99.90;;;;;;6278410;22;20015;-83
2022/06/19 14:32:45;;;;;;;5.38;1.50;;;18.80;99.90;;;;;;6226477;22;20520;-83
2022/06/19 14:35:19;;;;;;;5.03;0.95;;;18.70;99.90;;;;;;6278707;22;20042;-83
2022/06/19 14:38:05;;;;;;;6.67;1.63;;;18.70;99.90;;;;;;6251047;22;20022;-86
2022/06/19 14:40:31;;;;;;;;;;;18.60;99.90;;;;;;6279034;22;20373;-84
2022/06/19 14:43:10;;;;;;;8.13;1.58;;;18.50;99.90;;;;;;6251604;22;19911;-83
2022/06/19 14:46:02;;;;;;;6.18;1.10;;;18.40;99.90;;;;;;6251260;22;20012;-84
2022/06/19 14:48:46;;;;;;;5.53;1.50;;;18.50;99.90;;;;;;6277764;22;20014;-83
2022/06/19 14:51:26;;;;;;;5.97;1.30;;;18.30;99.90;;;;;;6252570;22;20284;-84
2022/06/19 14:54:32;;;;;;;9.32;2.53;;;18.50;99.90;;;;;;6225804;22;20497;-84
2022/06/19 14:57:07;;;;;;;11.13;1.80;;;18.80;99.90;;;;;;6231066;22;20438;-82
2022/06/19 14:59:41;;;;;;;7.60;2.67;;;18.80;99.90;;;;;;6278275;22;20061;-82
2022/06/19 15:02:52;;;;;;;6.47;1.98;;;18.80;99.90;;;;;;6245177;23;20008;-82
2022/06/19 15:05:29;;;;;;;8.45;1.40;;;18.50;99.90;;;;;;6165234;23;20016;-81
2022/06/19 15:08:09;;;;;;;6.28;1.70;;;18.40;99.90;;;;;;6247463;22;20117;-82
2022/06/19 15:10:37;;;;;;;10.50;2.28;;;18.20;99.90;;;;;;6248979;23;21913;-83
2022/06/19 15:13:14;;;;;;;8.55;3.17;;;18.10;99.90;;;;;;6248109;23;20020;-81
2022/06/19 15:15:45;;;;;;;11.85;2.65;;;18.00;99.90;;;;;;6247280;23;20012;-83
2022/06/19 15:18:24;;;;;;;8.10;2.40;;;17.90;99.90;;;;;;6220409;23;20055;-82
2022/06/19 15:20:57;;;;;;;8.77;1.90;;;17.90;99.90;;;;;;6246943;22;20024;-81
2022/06/19 15:23:31;;;;;;;12.20;2.58;;;17.80;99.90;;;;;;6249261;23;20062;-83
2022/06/19 15:26:21;;;;;;;10.15;2.42;;;17.70;99.90;;;;;;6272865;22;20449;-81
2022/06/19 15:28:59;;;;;;;8.55;1.95;;;17.70;99.90;;;;;;6247897;23;20091;-82
2022/06/19 15:31:44;;;;;;;6.50;1.13;;;17.60;99.90;;;;;;6249044;22;20039;-81
2022/06/19 15:34:33;;;;;;;5.07;1.50;;;17.60;99.90;;;;;;6272954;22;20023;-82
2022/06/19 15:36:58;;;;;;;11.60;1.55;;;17.60;99.90;;;;;;6247670;23;20108;-81
2022/06/19 15:39:30;;;;;;;6.63;1.52;;;17.50;99.90;;;;;;6272854;22;20446;-82
2022/06/19 15:42:28;;;;;;;4.80;1.38;;;17.40;99.90;;;;;;6249232;22;20066;-81
2022/06/19 15:45:07;;;;;;;8.40;1.40;;;17.40;99.90;;;;;;6247466;23;20012;-82
2022/06/19 15:48:11;;;;;;;12.45;2.90;;;17.30;99.90;;;;;;6249162;22;20035;-81
2022/06/19 15:50:56;;;;;;;7.30;1.70;;;17.20;99.90;;;;;;6196487;22;20012;-82
2022/06/19 15:53:44;;;;;;;10.43;1.92;;;17.20;99.90;;;;;;6247463;23;20426;-82
2022/06/19 15:56:21;;;;;;;6.55;1.77;;;17.20;99.90;;;;;;6247204;23;20008;-82
2022/06/19 15:58:49;;;;;;;7.00;1.65;;;17.20;99.90;;;;;;6249187;22;20426;-82
2022/06/19 16:01:38;;;;;;;11.05;1.95;;;17.10;99.90;;;;;;6260396;22;20049;-82
2022/06/19 16:04:20;;;;;;;7.97;1.58;;;17.10;99.90;;;;;;6279700;22;20008;-81
2022/06/19 16:07:19;;;;;;;6.10;1.50;;;17.10;99.90;;;;;;6251953;22;20012;-82
2022/06/19 16:09:57;;;;;;;7.30;1.70;;;17.10;99.90;;;;;;6220931;22;20479;-81
2022/06/19 16:12:26;;;;;;;9.00;1.80;;;17.10;99.90;;;;;;6279010;22;20015;-80
2022/06/19 16:15:28;;;;;;;8.48;2.08;;;17.00;99.90;;;;;;6280242;22;20007;-83
2022/06/19 16:18:04;;;;;;;9.63;1.73;;;17.00;99.90;;;;;;6101957;23;20081;-82
2022/06/19 16:20:36;;;;;;;8.95;1.75;;;16.90;99.90;;;;;;6258270;22;20012;-81
2022/06/19 16:23:04;;;;;;;13.30;2.20;;;16.90;99.90;;;;;;6252167;22;20016;-82
2022/06/19 16:25:41;;;;;;;10.60;2.45;;;16.90;99.90;;;;;;6252218;22;20019;-82
2022/06/19 16:28:26;;;;;;;9.43;1.45;;;16.90;99.90;;;;;;6251975;22;20023;-82
2022/06/19 16:31:05;;;;;;;9.40;1.40;;;16.90;99.90;;;;;;6252195;22;20026;-81
2022/06/19 16:33:44;;;;;;;11.88;1.73;;;17.00;99.90;;;;;;6251738;22;20012;-81
2022/06/19 16:44:43;;;;;;;8.32;1.52;;;17.20;99.90;;;;;;6277582;22;20019;-83
2022/06/19 16:47:21;;;;;;;10.20;2.08;;;17.40;99.90;;;;;;6254049;22;20016;-83
2022/06/19 16:50:07;;;;;;;10.52;1.92;;;17.50;99.90;;;;;;6252724;22;20453;-81
2022/06/19 16:52:36;;;;;;;8.88;1.85;;;17.50;99.90;;;;;;6279039;22;20012;-80
2022/06/19 16:55:09;;;;;;;8.00;1.80;;;17.40;99.90;;;;;;6251686;22;20513;-82
2022/06/19 16:57:44;;;;;;;9.93;1.80;;;17.40;99.90;;;;;;6226289;22;20090;-81
2022/06/19 17:00:15;;;;;;;9.80;1.95;;;17.20;99.90;;;;;;6279421;22;20015;-83
2022/06/19 17:03:13;;;;;;;7.57;1.40;;;17.20;99.90;;;;;;6251649;22;20054;-82
2022/06/19 17:05:46;;;;;;;8.48;1.60;;;17.00;99.90;;;;;;6267412;22;20069;-81
2022/06/19 17:11:00;;;;;;;8.45;1.92;;;16.90;99.90;;;;;;6279006;22;20012;-82
2022/06/19 17:13:27;;;;;;;7.90;1.90;;;16.90;99.90;;;;;;6278990;22;20011;-82
2022/06/19 17:15:57;;;;;;;11.75;2.35;;;16.90;99.90;;;;;;6278624;22;20034;-81
2022/06/19 17:18:24;;;;;;;8.68;2.20;;;16.90;99.90;;;;;;6251280;22;20012;-82
2022/06/19 17:20:50;;;;;;;9.20;1.77;;;16.90;99.90;;;;;;6251017;22;20378;-82
2022/06/19 17:23:16;;;;;;;9.73;1.83;;;16.80;99.90;;;;;;6251171;22;20007;-81
2022/06/19 17:25:45;;;;;;;10.10;1.90;;;16.80;99.90;;;;;;6252239;22;20015;-82
2022/06/19 17:28:13;;;;;;;7.35;2.13;;;16.80;99.90;;;;;;6278441;22;20008;-81
2022/06/19 17:31:00;;;;;;;11.02;1.90;;;16.70;99.90;;;;;;6250966;22;20004;-81
2022/06/19 17:33:31;;;;;;;12.45;2.58;;;16.70;99.90;;;;;;6278686;22;20020;-82
2022/06/19 17:36:00;;;;;;;7.70;1.70;;;16.70;99.90;;;;;;6277823;22;20509;-80
2022/06/19 17:38:38;;;;;;;13.18;1.70;;;16.60;99.90;;;;;;6277918;22;20341;-82
2022/06/19 17:41:09;;;;;;;8.90;2.00;;;16.60;99.90;;;;;;6225044;22;20018;-82
2022/06/19 17:43:34;;;;;;;8.23;1.90;;;16.50;99.90;;;;;;6277789;22;20016;-80
2022/06/19 17:46:30;;;;;;;8.45;1.50;;;16.50;99.90;;;;;;6277185;22;20019;-81